Time;durP1;ratioP1;P1;durP2;ratioP2;P2;SDS_P1;SDS_P2;PMS_P1;PMS_P2;Temp;Humidity;BMP_temperature;BMP_pressure;BME280_temperature;BME280_humidity;BME280_pressure;Samples;Min_cycle;Max_cycle;Signal;HPM_P1;HPM_P2
2022/08/18 00:02:08;;;;;;;4.88;4.50;;;;;;;;;;5073336;28;20392;-84
2022/08/18 00:04:37;;;;;;;4.75;4.35;;;;;;;;;;5071625;28;20441;-83
2022/08/18 00:07:03;;;;;;;5.50;5.03;;;;;;;;;;5072006;28;20384;-83
2022/08/18 00:09:29;;;;;;;5.10;4.70;;;;;;;;;;5071695;28;20411;-83
2022/08/18 00:11:55;;;;;;;5.13;4.78;;;;;;;;;;5071691;28;20410;-83
2022/08/18 00:14:21;;;;;;;4.90;4.50;;;;;;;;;;5074384;28;20412;-83
2022/08/18 00:16:48;;;;;;;4.90;4.50;;;;;;;;;;5075492;28;20384;-83
2022/08/18 00:19:14;;;;;;;4.70;4.30;;;;;;;;;;5075518;28;20376;-83
2022/08/18 00:21:40;;;;;;;4.50;4.15;;;;;;;;;;5075695;28;20414;-83
2022/08/18 00:24:06;;;;;;;4.30;4.00;;;;;;;;;;5075350;28;20383;-83
2022/08/18 00:26:32;;;;;;;4.80;4.40;;;;;;;;;;5057457;28;20375;-83
2022/08/18 00:28:58;;;;;;;4.57;4.22;;;;;;;;;;5075082;28;20404;-83
2022/08/18 00:31:24;;;;;;;4.50;4.10;;;;;;;;;;5075438;28;20410;-83
2022/08/18 00:33:50;;;;;;;4.40;4.10;;;;;;;;;;5075093;28;20379;-83
2022/08/18 00:36:16;;;;;;;4.22;3.92;;;;;;;;;;5075148;28;20383;-83
2022/08/18 00:38:42;;;;;;;4.65;4.30;;;;;;;;;;5075109;28;20410;-83
2022/08/18 00:41:08;;;;;;;4.70;4.30;;;;;;;;;;5072271;28;20477;-83
2022/08/18 00:43:42;;;;;;;4.85;4.45;;;;;;;;;;5043168;28;20416;-83
2022/08/18 00:46:11;;;;;;;5.40;4.90;;;;;;;;;;5055819;28;20401;-84
2022/08/18 00:48:37;;;;;;;5.15;4.65;;;;;;;;;;5041248;28;20401;-83
2022/08/18 00:51:08;;;;;;;7.95;5.22;;;;;;;;;;5068677;28;20390;-83
2022/08/18 00:53:44;;;;;;;5.63;5.18;;;;;;;;;;5073044;28;20376;-83
2022/08/18 00:56:12;;;;;;;5.63;5.22;;;;;;;;;;5074825;28;20742;-83
2022/08/18 00:58:40;;;;;;;5.32;4.93;;;;;;;;;;5074577;28;20394;-83
2022/08/18 01:01:08;;;;;;;5.45;5.00;;;;;;;;;;5074320;28;20391;-83
2022/08/18 01:03:38;;;;;;;5.80;5.40;;;;;;;;;;5074905;28;20472;-83
2022/08/18 01:06:09;;;;;;;5.57;5.18;;;;;;;;;;5074666;28;20388;-83
2022/08/18 01:08:35;;;;;;;5.13;4.80;;;;;;;;;;5074488;28;20403;-83
2022/08/18 01:11:02;;;;;;;5.18;4.68;;;;;;;;;;5074594;28;20454;-83
2022/08/18 01:13:29;;;;;;;4.50;4.18;;;;;;;;;;5074489;28;20509;-83
2022/08/18 01:15:56;;;;;;;5.40;5.07;;;;;;;;;;5070637;28;20399;-83
2022/08/18 01:23:59;;;;;;;5.30;4.90;;;;;;;;;;5071380;28;20422;-83
2022/08/18 01:26:26;;;;;;;4.65;4.35;;;;;;;;;;5066692;28;20381;-83
2022/08/18 01:28:52;;;;;;;4.72;4.32;;;;;;;;;;5058080;28;20404;-84
2022/08/18 01:31:29;;;;;;;4.80;4.50;;;;;;;;;;5054505;28;20747;-81
2022/08/18 01:33:56;;;;;;;4.53;4.23;;;;;;;;;;5055978;28;20856;-82
2022/08/18 01:36:22;;;;;;;5.15;4.75;;;;;;;;;;5055867;28;20456;-82
2022/08/18 01:38:50;;;;;;;4.57;4.28;;;;;;;;;;5056545;28;20377;-82
2022/08/18 01:41:17;;;;;;;4.70;4.40;;;;;;;;;;5056612;28;20833;-82
2022/08/18 01:43:45;;;;;;;4.90;4.55;;;;;;;;;;5069557;28;20383;-82
2022/08/18 01:46:11;;;;;;;4.75;4.45;;;;;;;;;;5075634;28;20419;-82
2022/08/18 01:48:38;;;;;;;4.93;4.53;;;;;;;;;;5072356;28;20407;-83
2022/08/18 01:51:05;;;;;;;4.90;4.50;;;;;;;;;;5072969;28;20437;-82
2022/08/18 01:53:31;;;;;;;4.70;4.40;;;;;;;;;;5072551;28;20784;-82
2022/08/18 01:55:57;;;;;;;4.97;4.57;;;;;;;;;;5072549;28;20376;-82
2022/08/18 01:58:26;;;;;;;4.75;4.45;;;;;;;;;;5073115;28;20380;-82
2022/08/18 02:00:56;;;;;;;5.07;4.67;;;;;;;;;;5075713;28;20380;-82
2022/08/18 02:03:25;;;;;;;5.15;4.82;;;;;;;;;;5073046;28;20936;-82
2022/08/18 02:05:54;;;;;;;4.65;4.35;;;;;;;;;;5068432;28;20403;-82
2022/08/18 02:08:20;;;;;;;5.47;5.07;;;;;;;;;;5058868;28;20555;-82
2022/08/18 02:10:47;;;;;;;5.13;4.72;;;;;;;;;;5071486;28;20376;-82
2022/08/18 02:13:13;;;;;;;5.10;4.70;;;;;;;;;;5071862;28;20411;-82
2022/08/18 02:15:39;;;;;;;5.15;4.82;;;;;;;;;;5072884;28;20375;-82
2022/08/18 02:18:05;;;;;;;5.57;5.15;;;;;;;;;;5073363;28;20372;-82
2022/08/18 02:20:31;;;;;;;5.70;5.30;;;;;;;;;;5073003;28;20736;-82
2022/08/18 02:22:57;;;;;;;5.40;5.00;;;;;;;;;;5072754;28;20376;-82
2022/08/18 02:25:23;;;;;;;6.07;5.63;;;;;;;;;;5073051;28;20783;-82
2022/08/18 02:27:49;;;;;;;6.28;5.78;;;;;;;;;;5073021;28;20390;-82
2022/08/18 02:30:17;;;;;;;6.40;6.00;;;;;;;;;;5073418;28;20548;-82
2022/08/18 02:32:43;;;;;;;7.03;6.53;;;;;;;;;;5073020;28;20382;-82
2022/08/18 02:35:10;;;;;;;7.32;6.72;;;;;;;;;;5072869;28;20466;-82
2022/08/18 02:37:36;;;;;;;7.75;7.25;;;;;;;;;;5072609;28;20367;-82
2022/08/18 02:40:03;;;;;;;7.40;6.80;;;;;;;;;;5072801;28;20400;-82
2022/08/18 02:42:29;;;;;;;7.88;7.32;;;;;;;;;;5072694;28;20856;-82
2022/08/18 02:44:55;;;;;;;6.90;6.40;;;;;;;;;;5072482;28;20376;-82
2022/08/18 02:47:21;;;;;;;7.33;6.83;;;;;;;;;;5072737;28;20383;-82
2022/08/18 02:49:48;;;;;;;6.57;6.07;;;;;;;;;;5072788;28;20482;-82
2022/08/18 02:52:14;;;;;;;6.82;6.32;;;;;;;;;;5072667;28;20372;-82
2022/08/18 02:54:40;;;;;;;6.23;5.83;;;;;;;;;;5072433;28;20387;-82
2022/08/18 02:57:08;;;;;;;6.28;5.78;;;;;;;;;;5072552;28;20401;-82
2022/08/18 02:59:34;;;;;;;6.60;6.20;;;;;;;;;;5072544;28;20737;-82
2022/08/18 03:02:00;;;;;;;7.20;6.70;;;;;;;;;;5072477;28;20875;-82
2022/08/18 03:04:27;;;;;;;6.88;6.38;;;;;;;;;;5072335;28;20861;-82
2022/08/18 03:06:54;;;;;;;7.40;6.80;;;;;;;;;;5072301;28;20388;-82
2022/08/18 03:09:20;;;;;;;6.85;6.35;;;;;;;;;;5072300;28;20404;-82
2022/08/18 03:11:46;;;;;;;7.18;6.68;;;;;;;;;;5072294;28;20380;-82
2022/08/18 03:14:13;;;;;;;6.70;6.20;;;;;;;;;;5072592;28;20819;-82
2022/08/18 03:16:40;;;;;;;6.70;6.25;;;;;;;;;;5072237;28;20878;-82
2022/08/18 03:19:06;;;;;;;6.15;5.75;;;;;;;;;;5072436;28;20384;-82
2022/08/18 03:21:36;;;;;;;6.25;5.85;;;;;;;;;;5072257;28;20379;-82
2022/08/18 03:24:03;;;;;;;5.95;5.55;;;;;;;;;;5072426;28;20388;-82
2022/08/18 03:26:30;;;;;;;6.70;6.10;;;;;;;;;;5072198;28;20509;-82
2022/08/18 03:28:56;;;;;;;6.53;6.03;;;;;;;;;;5053847;28;20805;-82
2022/08/18 03:31:24;;;;;;;6.60;6.10;;;;;;;;;;5072094;28;20388;-82
2022/08/18 03:33:50;;;;;;;6.43;5.93;;;;;;;;;;5072013;28;20374;-82
2022/08/18 03:36:19;;;;;;;6.80;6.30;;;;;;;;;;5072105;28;20384;-82
2022/08/18 03:38:45;;;;;;;7.00;6.50;;;;;;;;;;5074583;28;20415;-82
2022/08/18 03:41:12;;;;;;;6.65;6.15;;;;;;;;;;5071971;28;20423;-82
2022/08/18 03:43:38;;;;;;;6.80;6.30;;;;;;;;;;5072069;28;20375;-82
2022/08/18 03:46:06;;;;;;;6.50;6.10;;;;;;;;;;5071827;28;20402;-82
2022/08/18 03:48:32;;;;;;;7.10;6.60;;;;;;;;;;5055445;28;20884;-82
2022/08/18 03:51:05;;;;;;;6.78;6.28;;;;;;;;;;5076187;28;20729;-82
2022/08/18 03:53:33;;;;;;;6.80;6.30;;;;;;;;;;5076082;28;20805;-82
2022/08/18 03:55:59;;;;;;;7.80;7.30;;;;;;;;;;5063188;28;20389;-82
2022/08/18 03:58:26;;;;;;;7.38;6.88;;;;;;;;;;5059449;28;20384;-82
2022/08/18 04:00:52;;;;;;;7.20;6.70;;;;;;;;;;5067323;28;20383;-82
2022/08/18 04:03:18;;;;;;;8.18;7.50;;;;;;;;;;5075813;28;20996;-82
2022/08/18 04:05:44;;;;;;;7.75;7.25;;;;;;;;;;5058043;28;20476;-82
2022/08/18 04:08:12;;;;;;;8.30;7.70;;;;;;;;;;5075540;28;20888;-82
2022/08/18 04:10:38;;;;;;;7.63;7.07;;;;;;;;;;5076738;28;20458;-82
2022/08/18 04:13:04;;;;;;;8.30;7.70;;;;;;;;;;5075639;28;20872;-82
2022/08/18 04:15:30;;;;;;;9.07;8.48;;;;;;;;;;5075475;28;20426;-82
2022/08/18 04:18:03;;;;;;;7.37;6.87;;;;;;;;;;5075598;28;20375;-82
2022/08/18 04:20:31;;;;;;;6.15;5.65;;;;;;;;;;5075541;28;20402;-82
2022/08/18 04:22:57;;;;;;;6.50;6.00;;;;;;;;;;5075606;28;20500;-82
2022/08/18 04:25:23;;;;;;;6.45;6.05;;;;;;;;;;5057630;28;20463;-82
2022/08/18 04:27:49;;;;;;;6.20;5.80;;;;;;;;;;5075323;28;20380;-82
2022/08/18 04:30:15;;;;;;;6.15;5.75;;;;;;;;;;5057254;28;20408;-82
2022/08/18 04:32:42;;;;;;;6.47;5.97;;;;;;;;;;5075488;28;20382;-82
2022/08/18 04:35:08;;;;;;;6.88;6.38;;;;;;;;;;5075253;28;20376;-82
2022/08/18 04:37:36;;;;;;;6.97;6.47;;;;;;;;;;5075176;28;20387;-82
2022/08/18 04:40:02;;;;;;;8.05;7.45;;;;;;;;;;5075218;28;20463;-82
2022/08/18 04:42:28;;;;;;;7.50;6.97;;;;;;;;;;5075357;28;20437;-82
2022/08/18 04:44:54;;;;;;;8.45;7.70;;;;;;;;;;5056902;28;20384;-82
2022/08/18 04:47:20;;;;;;;8.60;7.90;;;;;;;;;;5075056;28;20865;-82
2022/08/18 04:49:47;;;;;;;10.15;9.35;;;;;;;;;;5074896;28;20436;-82
2022/08/18 04:54:59;;;;;;;8.50;7.90;;;;;;;;;;5076451;28;20403;-82
2022/08/18 04:57:25;;;;;;;8.50;7.90;;;;;;;;;;5074910;28;20375;-82
2022/08/18 04:59:52;;;;;;;7.95;7.35;;;;;;;;;;5074706;28;20390;-82
2022/08/18 05:02:18;;;;;;;7.63;7.13;;;;;;;;;;5074748;28;20891;-82
2022/08/18 05:04:47;;;;;;;8.23;7.63;;;;;;;;;;5074734;28;20391;-82
2022/08/18 05:07:16;;;;;;;8.80;8.13;;;;;;;;;;5074517;28;20372;-82
2022/08/18 05:09:42;;;;;;;8.73;8.13;;;;;;;;;;5074487;28;20399;-82
2022/08/18 05:12:11;;;;;;;9.97;9.17;;;;;;;;;;5074510;28;20406;-83
2022/08/18 05:14:38;;;;;;;10.95;10.05;;;;;;;;;;5074545;28;20715;-82
2022/08/18 05:17:04;;;;;;;10.13;9.43;;;;;;;;;;5073098;28;20388;-83
2022/08/18 05:19:30;;;;;;;10.23;9.43;;;;;;;;;;5074376;28;20857;-83
2022/08/18 05:21:59;;;;;;;9.63;8.93;;;;;;;;;;5074386;28;20407;-82
2022/08/18 05:24:26;;;;;;;10.73;9.90;;;;;;;;;;5073961;28;20718;-82
2022/08/18 05:26:54;;;;;;;10.50;9.60;;;;;;;;;;5056250;28;20388;-83
2022/08/18 05:29:20;;;;;;;10.82;10.02;;;;;;;;;;5073374;28;20764;-83
2022/08/18 05:31:50;;;;;;;10.68;9.98;;;;;;;;;;5074282;28;20375;-82
2022/08/18 05:34:17;;;;;;;10.15;9.45;;;;;;;;;;5074039;28;20474;-83
2022/08/18 05:36:51;;;;;;;11.68;10.88;;;;;;;;;;5074110;28;20857;-82
2022/08/18 05:39:20;;;;;;;14.32;13.20;;;;;;;;;;5076617;28;20812;-82
2022/08/18 05:41:51;;;;;;;15.07;13.88;;;;;;;;;;5074110;28;20384;-82
2022/08/18 05:44:19;;;;;;;13.27;12.30;;;;;;;;;;5073970;28;20414;-82
2022/08/18 05:46:56;;;;;;;11.75;10.95;;;;;;;;;;5073898;28;20865;-82
2022/08/18 05:49:24;;;;;;;10.80;10.05;;;;;;;;;;5073869;28;20404;-82
2022/08/18 05:51:54;;;;;;;10.18;9.45;;;;;;;;;;5073851;28;20853;-82
2022/08/18 05:57:08;;;;;;;10.10;9.30;;;;;;;;;;5070335;28;20476;-82
2022/08/18 05:59:37;;;;;;;9.60;8.93;;;;;;;;;;5076094;28;20425;-83
2022/08/18 06:02:24;;;;;;;9.88;9.18;;;;;;;;;;5055333;28;20399;-82
2022/08/18 06:04:49;;;;;;;10.60;9.80;;;;;;;;;;5075383;28;20383;-82
2022/08/18 06:07:18;;;;;;;8.80;8.20;;;;;;;;;;5073319;28;20444;-82
2022/08/18 06:09:47;;;;;;;8.95;8.35;;;;;;;;;;5073374;28;20407;-82
2022/08/18 06:12:19;;;;;;;10.10;9.30;;;;;;;;;;5073006;28;20390;-83
2022/08/18 06:14:45;;;;;;;10.52;9.82;;;;;;;;;;5073123;28;20376;-83
2022/08/18 06:17:11;;;;;;;9.30;8.60;;;;;;;;;;5072718;28;20455;-82
2022/08/18 06:19:40;;;;;;;9.47;8.77;;;;;;;;;;5064606;28;20389;-83
2022/08/18 06:22:17;;;;;;;9.32;8.65;;;;;;;;;;5061630;28;20440;-83
2022/08/18 06:24:51;;;;;;;8.43;7.88;;;;;;;;;;5072656;28;20779;-82
2022/08/18 06:27:28;;;;;;;8.40;7.80;;;;;;;;;;5073004;28;20376;-82
2022/08/18 06:30:03;;;;;;;8.00;7.40;;;;;;;;;;5065444;28;20414;-82
2022/08/18 06:32:40;;;;;;;8.48;7.88;;;;;;;;;;5071395;28;20417;-83
2022/08/18 06:35:09;;;;;;;7.97;7.38;;;;;;;;;;5056421;28;20748;-83
2022/08/18 06:38:37;;;;;;;8.05;7.35;;;;;;;;;;5071931;28;20380;-83
2022/08/18 06:40:28;;;;;;;8.88;8.18;;;;;;;;;;5072485;28;20390;-83
2022/08/18 06:42:54;;;;;;;9.05;8.25;;;;;;;;;;5065652;28;20403;-83
2022/08/18 06:45:23;;;;;;;9.10;8.38;;;;;;;;;;5052927;28;20393;-83
2022/08/18 06:48:08;;;;;;;9.65;8.18;;;;;;;;;;5053827;28;20387;-82
2022/08/18 06:50:41;;;;;;;8.90;8.10;;;;;;;;;;5069172;28;20418;-83
2022/08/18 06:53:07;;;;;;;9.15;8.38;;;;;;;;;;5066429;28;20380;-83
2022/08/18 06:55:40;;;;;;;8.27;7.68;;;;;;;;;;5051942;28;21020;-83
2022/08/18 06:58:28;;;;;;;7.80;7.30;;;;;;;;;;5050745;28;20399;-83
2022/08/18 07:00:58;;;;;;;8.38;7.78;;;;;;;;;;5052392;28;20496;-82
2022/08/18 07:03:40;;;;;;;7.97;7.38;;;;;;;;;;5072413;28;20395;-83
2022/08/18 07:06:10;;;;;;;7.25;6.75;;;;;;;;;;5072314;28;20470;-83
2022/08/18 07:08:43;;;;;;;7.10;6.60;;;;;;;;;;5054361;28;20404;-82
2022/08/18 07:11:19;;;;;;;6.80;6.30;;;;;;;;;;5072370;28;20375;-82
2022/08/18 07:13:46;;;;;;;7.47;6.90;;;;;;;;;;5072149;28;20387;-83
2022/08/18 07:16:15;;;;;;;7.65;7.05;;;;;;;;;;5072561;28;20414;-83
2022/08/18 07:18:42;;;;;;;7.13;6.63;;;;;;;;;;5071731;28;20387;-83
2022/08/18 07:21:08;;;;;;;7.28;6.75;;;;;;;;;;5066380;28;20431;-82
2022/08/18 07:23:38;;;;;;;7.13;6.60;;;;;;;;;;5049938;28;20391;-83
2022/08/18 07:26:04;;;;;;;7.30;6.70;;;;;;;;;;5068944;28;20418;-83
2022/08/18 07:28:35;;;;;;;6.80;6.30;;;;;;;;;;5071078;28;20404;-83
2022/08/18 07:31:17;;;;;;;7.25;6.65;;;;;;;;;;5068555;28;20383;-83
2022/08/18 07:33:46;;;;;;;6.97;6.47;;;;;;;;;;5070948;28;20429;-83
2022/08/18 07:36:12;;;;;;;7.05;6.55;;;;;;;;;;5071045;28;20380;-83
2022/08/18 07:38:45;;;;;;;7.07;6.57;;;;;;;;;;5070839;28;20437;-83
2022/08/18 07:41:49;;;;;;;7.07;6.43;;;;;;;;;;5070890;28;20383;-83
2022/08/18 07:44:24;;;;;;;7.25;6.72;;;;;;;;;;4969771;28;20400;-84
2022/08/18 07:47:02;;;;;;;6.95;6.35;;;;;;;;;;4972575;28;20412;-83
2022/08/18 07:49:32;;;;;;;7.30;6.80;;;;;;;;;;4971341;28;20417;-83
2022/08/18 07:52:05;;;;;;;7.57;6.97;;;;;;;;;;4971282;28;20431;-83
2022/08/18 07:54:31;;;;;;;7.50;7.00;;;;;;;;;;4971071;28;20481;-84
2022/08/18 07:56:57;;;;;;;7.63;7.03;;;;;;;;;;4971279;28;20524;-83
2022/08/18 07:59:23;;;;;;;7.57;6.97;;;;;;;;;;4971040;28;20483;-84
2022/08/18 08:02:00;;;;;;;7.20;6.70;;;;;;;;;;4970954;28;20396;-83
2022/08/18 08:04:26;;;;;;;7.45;6.95;;;;;;;;;;4972647;28;20443;-84
2022/08/18 08:07:02;;;;;;;7.53;6.93;;;;;;;;;;4970145;28;20396;-84
2022/08/18 08:09:35;;;;;;;7.60;7.10;;;;;;;;;;4954803;28;20797;-85
2022/08/18 08:12:13;;;;;;;7.88;7.30;;;;;;;;;;4971074;28;20384;-85
2022/08/18 08:14:44;;;;;;;7.63;7.03;;;;;;;;;;5009787;28;20372;-83
2022/08/18 08:17:36;;;;;;;7.90;7.30;;;;;;;;;;5073377;28;20426;-83
2022/08/18 08:20:32;;;;;;;7.15;6.55;;;;;;;;;;5063528;28;20387;-83
2022/08/18 08:22:58;;;;;;;8.07;7.47;;;;;;;;;;4979978;28;20743;-84
2022/08/18 08:25:35;;;;;;;7.97;7.32;;;;;;;;;;5068344;28;20729;-83
2022/08/18 08:28:08;;;;;;;7.63;7.13;;;;;;;;;;5071209;28;20764;-84
2022/08/18 08:30:38;;;;;;;7.40;6.90;;;;;;;;;;5071460;28;20415;-83
2022/08/18 08:33:22;;;;;;;8.10;7.50;;;;;;;;;;5070922;28;20775;-84
2022/08/18 08:35:52;;;;;;;8.07;7.57;;;;;;;;;;5074630;28;20447;-83
2022/08/18 08:38:22;;;;;;;7.90;7.40;;;;;;;;;;5075358;28;20382;-83
2022/08/18 08:40:47;;;;;;;7.20;6.70;;;;;;;;;;5075132;28;20380;-83
2022/08/18 08:43:17;;;;;;;7.77;7.20;;;;;;;;;;5075094;28;20390;-83
2022/08/18 08:46:02;;;;;;;8.90;8.30;;;;;;;;;;5057346;28;20795;-83
2022/08/18 08:48:30;;;;;;;8.57;7.97;;;;;;;;;;5074612;28;20380;-83
2022/08/18 08:51:13;;;;;;;7.65;7.00;;;;;;;;;;5074974;28;20421;-83
2022/08/18 08:53:43;;;;;;;8.20;7.60;;;;;;;;;;5075212;28;20725;-83
2022/08/18 08:56:13;;;;;;;8.70;8.00;;;;;;;;;;5074743;28;20371;-83
2022/08/18 08:58:39;;;;;;;8.55;7.95;;;;;;;;;;5074869;28;20383;-83
2022/08/18 09:01:07;;;;;;;8.30;7.60;;;;;;;;;;5074815;28;20387;-83
2022/08/18 09:03:42;;;;;;;7.68;7.13;;;;;;;;;;5074567;28;20388;-84
2022/08/18 09:06:11;;;;;;;7.50;7.00;;;;;;;;;;5074553;28;20392;-84
2022/08/18 09:08:49;;;;;;;7.10;6.50;;;;;;;;;;5074490;28;20442;-83
2022/08/18 09:11:18;;;;;;;7.65;7.15;;;;;;;;;;5074404;28;20392;-83
2022/08/18 09:13:56;;;;;;;7.38;6.88;;;;;;;;;;5074514;28;20459;-83
2022/08/18 09:16:41;;;;;;;7.40;6.90;;;;;;;;;;5074470;28;20467;-83
2022/08/18 09:19:07;;;;;;;7.38;6.88;;;;;;;;;;5074456;28;20429;-83
2022/08/18 09:21:36;;;;;;;6.75;6.25;;;;;;;;;;5074096;28;20384;-83
2022/08/18 09:24:13;;;;;;;6.65;6.05;;;;;;;;;;5073737;28;20398;-83
2022/08/18 09:27:03;;;;;;;7.40;6.90;;;;;;;;;;5073982;28;20379;-84
2022/08/18 09:29:38;;;;;;;7.57;6.95;;;;;;;;;;5040064;28;20549;-83
2022/08/18 09:32:19;;;;;;;7.03;6.50;;;;;;;;;;5074462;28;20437;-84
2022/08/18 09:34:53;;;;;;;6.90;6.40;;;;;;;;;;5073747;28;20371;-83
2022/08/18 09:37:19;;;;;;;7.75;7.15;;;;;;;;;;5074336;28;20445;-83
2022/08/18 09:42:42;;;;;;;6.07;5.57;;;;;;;;;;5072719;28;20910;-83
2022/08/18 09:45:25;;;;;;;6.57;6.10;;;;;;;;;;5072895;28;20400;-83
2022/08/18 09:47:55;;;;;;;6.55;5.95;;;;;;;;;;5076278;28;20375;-83
2022/08/18 09:50:27;;;;;;;7.00;6.50;;;;;;;;;;5085831;28;20407;-83
2022/08/18 09:52:55;;;;;;;6.70;6.28;;;;;;;;;;5073602;28;20376;-83
2022/08/18 09:55:24;;;;;;;6.30;5.90;;;;;;;;;;5073442;28;20387;-83
2022/08/18 09:58:09;;;;;;;7.65;7.05;;;;;;;;;;5073403;28;20380;-83
2022/08/18 10:00:35;;;;;;;8.05;7.47;;;;;;;;;;5055633;28;20385;-83
2022/08/18 10:03:03;;;;;;;7.53;7.03;;;;;;;;;;5073526;28;20415;-83
2022/08/18 10:05:30;;;;;;;8.55;7.85;;;;;;;;;;5075935;28;20386;-82
2022/08/18 10:08:00;;;;;;;7.47;6.77;;;;;;;;;;5073204;28;20467;-83
2022/08/18 10:10:26;;;;;;;7.13;6.53;;;;;;;;;;5055394;28;20407;-83
2022/08/18 10:13:02;;;;;;;7.40;6.80;;;;;;;;;;5073696;28;20379;-84
2022/08/18 10:15:36;;;;;;;11.88;10.75;;;;;;;;;;5073207;28;20368;-83
2022/08/18 10:18:09;;;;;;;6.93;6.40;;;;;;;;;;5073333;28;20379;-83
2022/08/18 10:20:47;;;;;;;7.00;6.40;;;;;;;;;;5073282;28;20372;-83
2022/08/18 10:23:33;;;;;;;6.67;6.17;;;;;;;;;;5073263;28;20387;-83
2022/08/18 10:25:59;;;;;;;6.07;5.57;;;;;;;;;;5055232;28;20382;-82
2022/08/18 10:28:47;;;;;;;5.57;5.10;;;;;;;;;;5072984;28;20387;-83
2022/08/18 10:31:13;;;;;;;4.90;4.60;;;;;;;;;;5073091;28;20387;-83
2022/08/18 10:33:58;;;;;;;4.93;4.63;;;;;;;;;;5055050;28;20813;-83
2022/08/18 10:36:42;;;;;;;4.97;4.60;;;;;;;;;;5071795;28;20463;-87
2022/08/18 10:39:17;;;;;;;8.65;5.15;;;;;;;;;;5072654;28;20468;-86
2022/08/18 10:41:50;;;;;;;5.22;4.90;;;;;;;;;;5072426;28;20391;-87
2022/08/18 10:44:18;;;;;;;6.82;5.82;;;;;;;;;;5072689;28;20376;-86
2022/08/18 10:46:44;;;;;;;6.05;5.65;;;;;;;;;;5066481;28;20411;-85
2022/08/18 10:49:12;;;;;;;5.88;5.38;;;;;;;;;;5071941;28;20462;-84
2022/08/18 10:51:57;;;;;;;6.28;5.70;;;;;;;;;;5072689;28;20430;-85
2022/08/18 10:54:31;;;;;;;6.22;5.82;;;;;;;;;;5072777;28;20372;-83
2022/08/18 10:57:05;;;;;;;5.70;5.30;;;;;;;;;;5071184;28;20399;-84
2022/08/18 10:59:46;;;;;;;5.93;5.38;;;;;;;;;;5071598;28;20391;-85
2022/08/18 11:02:25;;;;;;;6.40;5.90;;;;;;;;;;5070852;28;20372;-86
2022/08/18 11:04:52;;;;;;;5.85;5.43;;;;;;;;;;5069551;28;20367;-84
2022/08/18 11:07:23;;;;;;;4.88;4.47;;;;;;;;;;5071684;28;20383;-85
2022/08/18 11:09:51;;;;;;;5.80;5.40;;;;;;;;;;5072086;28;20593;-84
2022/08/18 11:12:34;;;;;;;5.57;5.07;;;;;;;;;;5071853;28;20380;-84
2022/08/18 11:15:00;;;;;;;4.80;4.30;;;;;;;;;;5053856;28;20430;-84
2022/08/18 11:17:35;;;;;;;5.13;4.75;;;;;;;;;;5072042;28;20425;-85
2022/08/18 11:20:02;;;;;;;5.35;4.88;;;;;;;;;;5072375;28;20403;-85
2022/08/18 11:22:30;;;;;;;4.70;4.30;;;;;;;;;;5072495;28;20383;-85
2022/08/18 11:24:56;;;;;;;5.40;5.10;;;;;;;;;;5071601;28;20408;-85
2022/08/18 11:27:24;;;;;;;5.20;4.80;;;;;;;;;;5071972;28;20441;-85
2022/08/18 11:29:50;;;;;;;4.50;4.20;;;;;;;;;;5071917;28;20811;-85
2022/08/18 11:32:23;;;;;;;6.30;4.78;;;;;;;;;;5072028;28;20383;-84
2022/08/18 11:34:59;;;;;;;5.80;4.65;;;;;;;;;;5072102;28;20372;-85
2022/08/18 11:37:40;;;;;;;6.47;4.47;;;;;;;;;;5071780;28;20474;-85
2022/08/18 11:40:27;;;;;;;4.95;4.65;;;;;;;;;;5072050;28;20384;-85
2022/08/18 11:43:13;;;;;;;5.50;4.90;;;;;;;;;;5060561;28;20376;-86
2022/08/18 11:45:45;;;;;;;5.32;4.85;;;;;;;;;;5057910;28;20821;-84
2022/08/18 11:48:15;;;;;;;4.55;4.25;;;;;;;;;;5071592;28;20372;-84
2022/08/18 11:50:47;;;;;;;4.50;4.10;;;;;;;;;;5071834;28;20404;-86
2022/08/18 11:53:17;;;;;;;4.93;4.55;;;;;;;;;;5071898;28;20422;-84
2022/08/18 11:55:43;;;;;;;5.30;4.80;;;;;;;;;;5071853;28;20865;-86
2022/08/18 11:58:09;;;;;;;4.67;4.27;;;;;;;;;;5071454;28;20376;-84
2022/08/18 12:00:47;;;;;;;4.60;4.30;;;;;;;;;;5072080;28;20386;-85
2022/08/18 12:03:19;;;;;;;5.25;4.85;;;;;;;;;;5069111;28;20967;-84
2022/08/18 12:05:55;;;;;;;5.47;4.97;;;;;;;;;;5072050;28;20380;-85
2022/08/18 12:08:27;;;;;;;5.55;5.05;;;;;;;;;;5071661;28;20384;-84
2022/08/18 12:11:05;;;;;;;5.55;5.05;;;;;;;;;;5069175;28;20388;-84
2022/08/18 12:13:32;;;;;;;5.55;5.15;;;;;;;;;;5065660;28;20406;-85
2022/08/18 12:16:08;;;;;;;5.33;4.93;;;;;;;;;;5056928;28;20719;-85
2022/08/18 12:18:33;;;;;;;6.27;5.73;;;;;;;;;;5067773;28;20932;-84
2022/08/18 12:21:00;;;;;;;6.27;5.40;;;;;;;;;;5057878;28;20376;-87
2022/08/18 12:23:26;;;;;;;5.83;5.40;;;;;;;;;;5074812;28;20857;-86
2022/08/18 12:25:52;;;;;;;6.10;5.60;;;;;;;;;;5056851;28;20857;-85
2022/08/18 12:28:20;;;;;;;5.63;5.22;;;;;;;;;;5074906;28;20382;-86
2022/08/18 12:30:46;;;;;;;5.20;4.80;;;;;;;;;;5075229;28;20914;-86
2022/08/18 12:33:12;;;;;;;5.95;5.35;;;;;;;;;;5073733;28;20398;-85
2022/08/18 12:35:38;;;;;;;5.97;5.47;;;;;;;;;;5073663;28;20459;-86
2022/08/18 12:38:04;;;;;;;5.50;5.05;;;;;;;;;;5073715;28;20375;-85
2022/08/18 12:40:30;;;;;;;5.97;5.20;;;;;;;;;;5073923;28;20802;-85
2022/08/18 12:42:56;;;;;;;6.13;5.63;;;;;;;;;;5074133;28;20384;-86
2022/08/18 12:45:24;;;;;;;5.80;5.40;;;;;;;;;;5053901;28;20490;-85
2022/08/18 12:47:50;;;;;;;5.78;5.38;;;;;;;;;;5078299;28;20395;-85
2022/08/18 12:50:16;;;;;;;5.88;5.38;;;;;;;;;;5074973;28;20412;-85
2022/08/18 12:52:42;;;;;;;5.80;5.50;;;;;;;;;;5074530;28;20844;-84
2022/08/18 12:55:09;;;;;;;5.50;5.00;;;;;;;;;;5074791;28;20468;-85
2022/08/18 12:57:35;;;;;;;5.95;5.43;;;;;;;;;;5074135;28;20403;-84
2022/08/18 13:00:01;;;;;;;5.72;5.32;;;;;;;;;;5074724;28;20387;-87
2022/08/18 13:02:27;;;;;;;5.60;5.20;;;;;;;;;;5074871;28;20380;-86
2022/08/18 13:04:53;;;;;;;6.78;6.30;;;;;;;;;;5074594;28;20387;-86
2022/08/18 13:07:19;;;;;;;6.25;5.72;;;;;;;;;;5074432;28;20383;-88
2022/08/18 13:09:45;;;;;;;6.82;6.22;;;;;;;;;;5074540;28;20760;-86
2022/08/18 13:12:12;;;;;;;6.82;6.30;;;;;;;;;;5077817;28;20376;-85
2022/08/18 13:14:39;;;;;;;6.47;5.97;;;;;;;;;;5074484;28;20433;-86
2022/08/18 13:17:05;;;;;;;6.50;6.10;;;;;;;;;;5074518;28;20912;-88
2022/08/18 13:19:31;;;;;;;6.72;6.22;;;;;;;;;;5074532;28;20379;-86
2022/08/18 13:21:57;;;;;;;6.20;5.78;;;;;;;;;;5073053;28;20380;-86
2022/08/18 13:24:23;;;;;;;6.15;5.75;;;;;;;;;;5073935;28;20434;-87
2022/08/18 13:26:50;;;;;;;6.53;6.03;;;;;;;;;;5074562;28;20884;-86
2022/08/18 13:29:17;;;;;;;6.78;6.28;;;;;;;;;;5074169;28;20494;-86
2022/08/18 13:31:43;;;;;;;6.73;6.23;;;;;;;;;;5074322;28;20371;-86
2022/08/18 13:34:12;;;;;;;6.68;5.97;;;;;;;;;;5074011;28;20458;-86
2022/08/18 13:36:44;;;;;;;5.90;5.50;;;;;;;;;;5074317;28;20371;-86
2022/08/18 13:39:14;;;;;;;6.00;5.50;;;;;;;;;;5056244;28;20384;-86
2022/08/18 13:41:42;;;;;;;6.73;6.13;;;;;;;;;;5074075;28;20482;-88
2022/08/18 13:44:08;;;;;;;6.22;5.80;;;;;;;;;;5074261;28;20790;-86
2022/08/18 13:46:41;;;;;;;5.35;5.05;;;;;;;;;;5070714;28;20884;-86
2022/08/18 13:49:07;;;;;;;6.63;6.00;;;;;;;;;;5072663;28;20411;-86
2022/08/18 13:51:33;;;;;;;6.38;5.78;;;;;;;;;;5076451;28;20750;-86
2022/08/18 13:54:00;;;;;;;5.82;5.43;;;;;;;;;;5073449;28;20729;-88
2022/08/18 13:56:26;;;;;;;5.87;5.47;;;;;;;;;;5073727;28;20996;-85
2022/08/18 13:58:52;;;;;;;6.80;6.30;;;;;;;;;;5065025;28;20482;-86
2022/08/18 14:01:18;;;;;;;7.00;6.50;;;;;;;;;;5070140;28;20501;-87
2022/08/18 14:03:46;;;;;;;6.75;6.15;;;;;;;;;;5073451;28;20379;-87
2022/08/18 14:06:12;;;;;;;6.38;5.97;;;;;;;;;;5070005;28;20407;-86
2022/08/18 14:08:38;;;;;;;6.53;6.03;;;;;;;;;;5072319;28;20809;-86
2022/08/18 14:11:05;;;;;;;6.40;6.00;;;;;;;;;;5073481;28;20463;-87
2022/08/18 14:13:31;;;;;;;5.97;5.55;;;;;;;;;;5075536;28;20384;-85
2022/08/18 14:15:58;;;;;;;6.85;6.32;;;;;;;;;;5073579;28;20394;-87
2022/08/18 14:18:25;;;;;;;6.27;5.80;;;;;;;;;;5073503;28;20847;-87
2022/08/18 14:29:05;;;;;;;5.82;5.43;;;;;;;;;;5073105;28;20785;-87
2022/08/18 14:31:31;;;;;;;5.40;5.10;;;;;;;;;;5072912;28;20375;-85
2022/08/18 14:33:58;;;;;;;6.03;5.53;;;;;;;;;;5072794;28;20454;-89
2022/08/18 14:36:24;;;;;;;5.73;5.27;;;;;;;;;;5072999;28;20927;-87
2022/08/18 14:38:50;;;;;;;5.82;5.43;;;;;;;;;;5073258;28;20375;-85
2022/08/18 14:41:16;;;;;;;6.07;5.57;;;;;;;;;;5064017;28;20388;-85
2022/08/18 14:43:45;;;;;;;5.40;5.05;;;;;;;;;;5072863;28;20441;-85
2022/08/18 14:46:12;;;;;;;5.82;5.32;;;;;;;;;;5072194;28;20380;-85
2022/08/18 14:48:40;;;;;;;6.10;5.60;;;;;;;;;;5072413;28;20407;-87
2022/08/18 14:51:07;;;;;;;6.10;5.70;;;;;;;;;;5054803;28;20434;-84
2022/08/18 14:53:34;;;;;;;5.78;5.38;;;;;;;;;;5067447;28;20711;-88
2022/08/18 14:56:01;;;;;;;6.07;5.57;;;;;;;;;;5064175;28;20372;-87
2022/08/18 14:58:28;;;;;;;6.03;5.50;;;;;;;;;;5058306;28;20527;-86
2022/08/18 15:00:55;;;;;;;6.20;5.60;;;;;;;;;;5072618;28;20411;-86
2022/08/18 15:03:22;;;;;;;5.60;5.20;;;;;;;;;;5072515;28;20463;-86
2022/08/18 15:05:48;;;;;;;5.90;5.43;;;;;;;;;;5072518;28;20380;-86
2022/08/18 15:08:14;;;;;;;5.97;5.47;;;;;;;;;;5072420;28;20403;-85
2022/08/18 15:10:40;;;;;;;5.72;5.32;;;;;;;;;;5056939;28;20408;-87
2022/08/18 15:13:09;;;;;;;5.95;5.50;;;;;;;;;;5056604;28;20458;-85
2022/08/18 15:15:35;;;;;;;6.50;5.97;;;;;;;;;;5073258;28;20407;-86
2022/08/18 15:18:01;;;;;;;6.35;5.85;;;;;;;;;;5072331;28;20376;-87
2022/08/18 15:20:27;;;;;;;6.00;5.40;;;;;;;;;;5071965;28;20368;-89